Terminal Aerodrome Forecast
Issued by NWS

Home | Current Version | Previous Version | Graphics & Text | Print | Product List | Glossary On
Versions: 1 2 3 4 5 6 7 8 9 10 11 12 13 14 15 16 17 18 19 20 21 22 23 24
000
FTUS43 KICT 190105 AAA
TAFSLN
TAF AMD
KSLN 190105Z 1901/1924 17009KT P6SM VCTS OVC050CB
      TEMPO 1901/1903 VRB22G30KT 5SM TSRAGR OVC040CB
     FM190300 15009KT P6SM OVC050
     FM190600 18013KT P6SM SCT050
     FM191500 18017G22KT P6SM SCT050 SCT100
     FM191800 18022G30KT P6SM SKC=

USA.gov is the U.S. government's official web portal to all federal, state and local government web resources and services.